createdAt,value
2022-08-17T09:35:20.740Z,36.90
2022-08-17T09:45:02.955Z,37.40
2022-08-17T09:47:53.794Z,36.60
2022-08-17T09:51:04.005Z,36.80
2022-08-17T09:53:44.583Z,37.10
2022-08-17T09:56:32.388Z,37.30
2022-08-17T09:59:23.718Z,37.20
2022-08-17T10:02:28.362Z,35.90
2022-08-17T10:05:22.635Z,35.40
2022-08-17T10:08:03.386Z,35.90
2022-08-17T10:11:03.102Z,35.50
2022-08-17T10:13:39.030Z,35.70
2022-08-17T10:16:19.846Z,36.80
2022-08-17T10:19:07.651Z,37.50
2022-08-17T10:22:00.775Z,37.20
2022-08-17T10:25:21.187Z,36.50
2022-08-17T10:27:52.004Z,36.00
2022-08-17T10:30:25.739Z,36.30
2022-08-17T10:32:56.780Z,36.60
2022-08-17T10:35:43.900Z,35.90
2022-08-17T10:38:45.587Z,35.90
2022-08-17T10:41:30.399Z,35.60
2022-08-17T10:44:38.758Z,35.50
2022-08-17T10:47:10.022Z,35.90
2022-08-17T10:49:50.003Z,36.10
2022-08-17T10:52:28.682Z,36.30
2022-08-17T10:54:58.321Z,36.40
2022-08-17T10:57:42.888Z,36.20
2022-08-17T11:00:27.106Z,36.50
2022-08-17T11:03:05.349Z,35.20
2022-08-17T11:06:00.767Z,34.80
2022-08-17T11:09:08.671Z,35.00
2022-08-17T11:11:47.907Z,34.60
2022-08-17T11:14:27.773Z,34.30
2022-08-17T11:17:05.575Z,33.80
2022-08-17T11:20:06.978Z,33.70
2022-08-17T11:23:01.991Z,33.60
2022-08-17T11:25:50.643Z,33.50
2022-08-17T11:28:35.371Z,33.50
2022-08-17T11:31:44.066Z,34.00
2022-08-17T11:34:23.288Z,34.30
2022-08-17T11:37:30.143Z,34.60
2022-08-17T11:40:36.362Z,34.70
2022-08-17T11:43:29.893Z,33.80
2022-08-17T11:46:28.292Z,33.50
2022-08-17T11:49:27.997Z,33.70
2022-08-17T11:52:03.962Z,34.20
2022-08-17T11:54:50.296Z,34.60
2022-08-17T11:57:27.312Z,34.50
2022-08-17T12:00:09.060Z,34.90
2022-08-17T12:02:50.932Z,35.20
2022-08-17T12:05:27.746Z,35.20
2022-08-17T12:08:39.437Z,34.60
2022-08-17T12:11:14.815Z,34.60
2022-08-17T12:13:50.270Z,33.80
2022-08-17T12:16:20.995Z,33.40
2022-08-17T12:19:25.925Z,33.60
2022-08-17T12:22:13.224Z,33.20
2022-08-17T12:25:23.996Z,33.60
2022-08-17T12:28:28.841Z,34.20
2022-08-17T12:31:22.509Z,34.20
2022-08-17T12:33:56.624Z,34.30
2022-08-17T12:36:27.792Z,34.30
2022-08-17T12:39:12.860Z,34.40
2022-08-17T12:41:52.354Z,34.50
2022-08-17T12:44:28.772Z,34.20
2022-08-17T12:47:09.407Z,34.10
2022-08-17T12:49:44.000Z,34.30
2022-08-17T12:52:26.632Z,34.10
2022-08-17T12:55:17.829Z,34.20
2022-08-17T12:57:52.302Z,34.10
2022-08-17T13:00:51.109Z,34.20
2022-08-17T13:03:29.249Z,34.30
2022-08-17T13:06:07.103Z,34.10
2022-08-17T13:08:43.561Z,34.00
2022-08-17T13:11:23.081Z,33.80
2022-08-17T13:13:57.123Z,33.60
2022-08-17T13:16:46.492Z,33.60
2022-08-17T13:19:39.933Z,33.60
2022-08-17T13:22:16.102Z,33.40
2022-08-17T13:24:53.931Z,33.60
2022-08-17T13:27:28.072Z,33.40
2022-08-17T13:30:01.996Z,33.20
2022-08-17T13:32:33.819Z,33.30
2022-08-17T13:35:32.250Z,33.20
2022-08-17T13:38:21.693Z,33.30
2022-08-17T13:40:55.895Z,33.20
2022-08-17T13:43:46.409Z,33.10
2022-08-17T13:46:41.539Z,33.40
2022-08-17T13:49:17.418Z,33.60
2022-08-17T13:51:54.239Z,33.20
2022-08-17T13:54:36.331Z,33.00
2022-08-17T13:57:10.987Z,32.90
2022-08-17T14:00:11.056Z,33.20
2022-08-17T14:02:45.319Z,33.00
2022-08-17T14:05:15.843Z,33.10
2022-08-17T14:07:45.952Z,33.00
2022-08-17T14:10:18.075Z,33.00
2022-08-17T14:12:55.490Z,33.20
2022-08-17T14:15:54.738Z,33.40
2022-08-17T14:18:50.526Z,33.60
2022-08-17T14:21:14.835Z,33.40
2022-08-17T14:23:54.638Z,33.60
2022-08-17T14:26:29.862Z,33.60
2022-08-17T14:28:58.948Z,33.60
2022-08-17T14:31:32.931Z,33.40
2022-08-17T14:34:07.210Z,33.40
2022-08-17T14:36:36.374Z,33.40
2022-08-17T14:39:07.120Z,33.30
2022-08-17T14:41:42.626Z,33.10
2022-08-17T14:44:16.767Z,33.10
2022-08-17T14:46:45.988Z,33.00
2022-08-17T14:49:18.370Z,33.10
2022-08-17T14:51:49.426Z,33.10
2022-08-17T14:54:33.168Z,33.10
2022-08-17T14:57:33.108Z,33.10
2022-08-17T14:59:59.224Z,33.10
2022-08-17T15:02:30.877Z,33.10
2022-08-17T15:05:01.391Z,33.10
2022-08-17T15:07:36.671Z,33.00
2022-08-17T15:10:09.810Z,33.00
2022-08-17T15:12:40.328Z,32.90
2022-08-17T15:15:13.540Z,32.80
2022-08-17T15:17:50.177Z,32.80
2022-08-17T15:20:24.675Z,32.80
2022-08-17T15:23:00.481Z,32.80
2022-08-17T15:25:31.590Z,32.90
2022-08-17T15:28:03.012Z,32.80
2022-08-17T15:30:39.531Z,32.70
2022-08-17T15:33:18.050Z,32.70
2022-08-17T15:35:51.204Z,32.60
2022-08-17T15:38:25.571Z,32.60
2022-08-17T15:40:57.832Z,32.60
2022-08-17T15:43:37.710Z,32.50
2022-08-17T15:46:45.204Z,32.60
2022-08-17T15:49:17.165Z,32.60
2022-08-17T15:51:50.498Z,32.50
2022-08-17T15:54:23.397Z,32.50
2022-08-17T15:56:57.145Z,32.40
2022-08-17T15:59:28.132Z,32.40
2022-08-17T16:03:09.884Z,32.50
2022-08-17T16:04:48.296Z,32.50
2022-08-17T16:07:27.786Z,32.50
2022-08-17T16:10:01.670Z,32.50
2022-08-17T16:12:36.198Z,32.50
2022-08-17T16:15:10.470Z,32.60
2022-08-17T16:17:46.765Z,32.40
2022-08-17T16:20:22.212Z,32.50
2022-08-17T16:22:53.793Z,32.50
2022-08-17T16:25:53.791Z,32.50
2022-08-17T16:28:35.868Z,32.60
2022-08-17T16:31:08.046Z,32.50
2022-08-17T16:33:40.331Z,32.60
2022-08-17T16:36:11.526Z,32.50
2022-08-17T16:38:47.167Z,32.40
2022-08-17T16:41:38.438Z,32.30
2022-08-17T16:44:10.308Z,32.20
2022-08-17T16:46:47.472Z,32.10
2022-08-17T16:49:35.441Z,32.00
2022-08-17T16:52:15.052Z,32.00
2022-08-17T16:55:05.222Z,31.90
2022-08-17T16:57:38.118Z,31.80
2022-08-17T17:00:17.893Z,31.70
2022-08-17T17:02:48.188Z,31.60
2022-08-17T17:05:44.388Z,31.50
2022-08-17T17:08:18.496Z,31.50
2022-08-17T17:10:50.147Z,31.40
2022-08-17T17:13:37.635Z,31.40
2022-08-17T17:16:15.943Z,31.30
2022-08-17T17:18:49.578Z,31.20
2022-08-17T17:21:19.532Z,31.10
2022-08-17T17:24:03.639Z,31.10
2022-08-17T17:27:15.682Z,31.00
2022-08-17T17:30:02.986Z,30.90
2022-08-17T17:32:41.224Z,30.70
2022-08-17T17:35:22.307Z,30.60
2022-08-17T17:37:54.724Z,30.60
2022-08-17T17:40:28.193Z,30.60
2022-08-17T17:43:09.253Z,30.50
2022-08-17T17:46:29.378Z,30.50
2022-08-17T17:49:00.846Z,30.40
2022-08-17T17:52:15.733Z,30.30
2022-08-17T17:55:10.146Z,30.30
2022-08-17T17:57:58.154Z,30.20
2022-08-17T18:00:50.122Z,30.10
2022-08-17T18:03:29.733Z,30.00
2022-08-17T18:06:06.725Z,30.00
2022-08-17T18:09:28.294Z,29.90
2022-08-17T18:12:35.200Z,29.90
2022-08-17T18:15:09.957Z,29.90
2022-08-17T18:18:16.705Z,29.80
2022-08-17T18:20:55.930Z,29.70
2022-08-17T18:23:28.589Z,29.70
2022-08-17T18:25:59.489Z,29.60
2022-08-17T18:28:43.921Z,29.60
2022-08-17T18:31:28.032Z,29.50
2022-08-17T18:37:40.523Z,29.40
2022-08-17T18:40:19.119Z,29.50
2022-08-17T18:43:03.714Z,29.50
2022-08-17T18:46:00.698Z,29.50
2022-08-17T18:48:41.153Z,29.40
2022-08-17T18:51:40.795Z,29.40
2022-08-17T18:55:13.534Z,29.40
2022-08-17T18:57:52.556Z,29.50
2022-08-17T19:00:22.499Z,29.40
2022-08-17T19:03:02.019Z,29.40
2022-08-17T19:05:43.750Z,29.40
2022-08-17T19:08:38.727Z,29.30
2022-08-17T19:11:20.711Z,29.30
2022-08-17T19:14:15.716Z,29.20
2022-08-17T19:16:55.398Z,29.10
2022-08-17T19:19:47.594Z,29.10
2022-08-17T19:22:30.983Z,29.00
2022-08-17T19:25:11.041Z,28.90
2022-08-17T19:27:57.328Z,28.90
2022-08-17T19:30:28.746Z,28.90
2022-08-17T19:33:03.472Z,28.80
2022-08-17T19:35:45.507Z,28.80
2022-08-17T19:38:45.768Z,28.80
2022-08-17T19:41:28.964Z,28.70
2022-08-17T19:44:21.791Z,28.70
2022-08-17T19:47:03.246Z,28.60
2022-08-17T19:50:12.959Z,28.60
2022-08-17T19:53:23.051Z,28.50
2022-08-17T19:56:22.537Z,28.40
2022-08-17T19:58:56.323Z,28.30
2022-08-17T20:01:49.258Z,28.30
2022-08-17T20:04:32.250Z,28.20
2022-08-17T20:07:15.549Z,28.10
2022-08-17T20:09:54.537Z,28.10
2022-08-17T20:12:26.686Z,28.00
2022-08-17T20:15:02.439Z,27.90
2022-08-17T20:17:34.404Z,27.80
2022-08-17T20:20:37.187Z,27.70
2022-08-17T20:23:33.526Z,27.70
2022-08-17T20:26:23.010Z,27.80
2022-08-17T20:29:37.728Z,27.70
2022-08-17T20:32:18.248Z,27.70
2022-08-17T20:34:52.197Z,27.60
2022-08-17T20:37:20.512Z,27.60
2022-08-17T20:39:51.075Z,27.60
2022-08-17T20:42:22.015Z,27.70
2022-08-17T20:45:01.568Z,27.60
2022-08-17T20:47:36.422Z,27.60
2022-08-17T20:50:20.133Z,27.60
2022-08-17T20:53:09.792Z,27.50
2022-08-17T20:55:51.365Z,27.20
2022-08-17T20:58:30.649Z,27.00
2022-08-17T21:01:02.103Z,26.90
2022-08-17T21:03:40.018Z,26.80
2022-08-17T21:06:23.335Z,26.70
2022-08-17T21:09:15.051Z,26.40
2022-08-17T21:12:04.898Z,26.40
2022-08-17T21:15:04.076Z,26.00
2022-08-17T21:17:40.174Z,25.60
2022-08-17T21:20:12.869Z,25.50
2022-08-17T21:23:22.223Z,25.30
2022-08-17T21:26:03.196Z,25.30
2022-08-17T21:29:00.473Z,25.30
2022-08-17T21:31:35.330Z,25.30
2022-08-17T21:34:18.594Z,25.30
2022-08-17T21:36:51.012Z,25.20
2022-08-17T21:39:33.120Z,25.20
2022-08-17T21:42:03.535Z,25.20
2022-08-17T21:44:39.525Z,25.30
2022-08-17T21:47:28.842Z,25.40
2022-08-17T21:50:14.044Z,25.40
2022-08-17T21:52:44.646Z,25.50
2022-08-17T21:55:33.599Z,25.40
2022-08-17T21:58:14.827Z,25.50
2022-08-17T22:00:48.944Z,25.50
2022-08-17T22:03:31.172Z,25.50
2022-08-17T22:06:00.815Z,25.50
2022-08-17T22:08:32.164Z,25.60
2022-08-17T22:11:08.542Z,25.50
2022-08-17T22:13:43.263Z,25.50
2022-08-17T22:16:28.757Z,25.40
2022-08-17T22:19:05.064Z,25.40
2022-08-17T22:21:41.058Z,25.40
2022-08-17T22:24:22.754Z,25.40
2022-08-17T22:27:09.308Z,25.40
2022-08-17T22:30:01.486Z,25.30
2022-08-17T22:32:57.148Z,25.30
2022-08-17T22:36:07.733Z,25.30
2022-08-17T22:38:39.747Z,25.30
2022-08-17T22:41:36.076Z,25.20
2022-08-17T22:44:14.975Z,25.10
2022-08-17T22:47:07.455Z,24.90
2022-08-17T22:49:59.526Z,24.80
2022-08-17T22:52:58.879Z,24.80
2022-08-17T22:55:46.845Z,24.90
2022-08-17T22:58:37.761Z,24.90
2022-08-17T23:01:52.168Z,24.90
2022-08-17T23:04:41.351Z,24.90
2022-08-17T23:07:13.283Z,25.00
2022-08-17T23:09:43.943Z,25.10
2022-08-17T23:12:21.247Z,25.10
2022-08-17T23:14:54.891Z,25.10
2022-08-17T23:17:35.102Z,25.00
2022-08-17T23:20:14.500Z,25.00
2022-08-17T23:22:52.344Z,25.10
2022-08-17T23:25:54.178Z,25.00
2022-08-17T23:28:24.861Z,25.00
2022-08-17T23:30:55.139Z,24.90
2022-08-17T23:33:32.702Z,24.90
2022-08-17T23:36:08.514Z,24.90
2022-08-17T23:38:38.598Z,24.90
2022-08-17T23:41:15.108Z,24.80
2022-08-17T23:43:51.295Z,24.80
2022-08-17T23:46:26.907Z,24.80
2022-08-17T23:49:00.706Z,24.80
2022-08-17T23:51:34.746Z,24.70
2022-08-17T23:54:08.378Z,24.70
2022-08-17T23:56:46.341Z,24.70
2022-08-17T23:59:16.408Z,24.60
